< Typhoon 202207 2022 Season Typhoon 202209 >
Typhoon 202208 (MEARI)
General InformationDetailed Track InformationTrack Information on Google MapsForecast History on Google MapsAccess Analytics MapList of All Images || NewsDisaster Info.JMA Disaster Info. XMLWeblogTrackbackTyphoon FrontTwiphoonTyphoon Now!Typhoon ImaginationResourceGoogle EarthGE AnimationAtom FeedGeoJSON
Detalied Best Track Wind (Time Zone = UTC)
Year Month Day Hour Lat. Long. Wind (kt) Gust (kt) Direc. of Major Storm Axis Radius of Major Storm Axis (nm) Radius of Minor Storm Axis (nm) Direc. of Major Gale Axis Radius of Major Gale Axis (nm) Radius of Minor Gale Axis (nm) Image
2022 8 10 00 25.5 140.3 30 45 - - - - - - Image
2022 8 10 03 25.9 139.8 30 45 - - - - - - Image
2022 8 10 06 26.6 139.1 30 45 - - - - - - Image
2022 8 10 09 26.9 138.9 30 45 - - - - - - Image
2022 8 10 12 27.1 138.1 30 45 - - - - - - Image
2022 8 10 15 27.3 137.7 30 45 - - - - - - Image
2022 8 10 18 27.9 137.6 30 45 - - - - - - Image
2022 8 10 21 28.2 137.1 30 45 - - - - - - Image
2022 8 11 00 28.7 136.7 30 45 - - - - - - Image
2022 8 11 03 28.9 136.5 30 45 - - - - - - Image
2022 8 11 06 29.0 136.2 30 45 - - - - - - Image
2022 8 11 09 29.2 135.9 30 45 - - - - - - Image
2022 8 11 12 29.4 135.8 30 45 - - - - - - Image
2022 8 11 15 29.5 135.8 30 45 - - - - - - Image
2022 8 11 18 29.6 135.9 35 50 - - - SE 180 120 Image
2022 8 11 21 29.8 136.1 35 50 - - - SE 180 120 Image
2022 8 12 00 30.2 136.2 35 50 - - - SE 180 120 Image
2022 8 12 03 30.6 136.2 35 50 - - - SE 180 120 Image
2022 8 12 06 30.8 136.3 35 50 - - - SE 180 90 Image
2022 8 12 09 31.1 136.5 35 50 - - - SE 180 90 Image
2022 8 12 12 31.9 136.7 35 50 - - - E 240 90 Image
2022 8 12 15 32.5 136.6 35 50 - - - E 240 90 Image
2022 8 12 18 32.9 136.7 40 60 - - - E 210 90 Image
2022 8 12 21 33.2 136.9 40 60 - - - E 210 90 Image
2022 8 13 00 33.8 137.2 40 60 - - - E 210 90 Image
2022 8 13 03 34.3 137.7 40 60 - - - E 210 90 Image
2022 8 13 06 34.7 138.2 40 60 - - - E 210 90 Image
2022 8 13 09 35.2 139.1 40 60 - - - E 210 90 Image
2022 8 13 12 35.8 140.3 40 60 - - - E 210 90 Image
2022 8 13 15 36.3 141.5 40 60 - - - E 210 90 Image
2022 8 13 18 37.4 142.6 40 60 - - - SE 150 90 Image
2022 8 13 21 38.1 143.9 40 60 - - - SE 150 90 Image
2022 8 14 00 39.2 144.7 40 60 - - - SE 150 90 Image
2022 8 14 03 40.3 146.0 40 60 - - - SE 150 90 Image
2022 8 14 06 41.2 147.2 40 60 - - - SE 150 90 Image
2022 8 14 09 41.8 148.3 40 60 - - - SE 150 90 Image
2022 8 14 12 44.0 150.0 45 0 - - - SE 300 200 Image
Japan Meteorological Agency Best Track Data | Correction Date : 2022-08-14
< Typhoon 202207 2022 Season Typhoon 202209 >

Help